Time;durP1;ratioP1;P1;durP2;ratioP2;P2;SDS_P1;SDS_P2;PMS_P1;PMS_P2;Temp;Humidity;BMP_temperature;BMP_pressure;BME280_temperature;BME280_humidity;BME280_pressure;Samples;Min_cycle;Max_cycle;Signal;HPM_P1;HPM_P2
2023/07/10 00:02:18;;;;;;;4.18;2.95;;;;;;;27.63;35.77;98480.25;5059309;28;20036;-70
2023/07/10 00:04:45;;;;;;;4.03;2.88;;;;;;;27.71;36.04;98484.22;5042632;28;20234;-70
2023/07/10 00:07:10;;;;;;;5.18;3.22;;;;;;;27.61;35.95;98476.22;5075807;28;20122;-71
2023/07/10 00:09:38;;;;;;;8.90;3.20;;;;;;;27.80;36.05;98479.75;5059694;28;20135;-70
2023/07/10 00:12:05;;;;;;;3.58;3.28;;;;;;;27.66;36.07;98473.41;5059929;28;20043;-70
2023/07/10 00:14:34;;;;;;;4.38;3.20;;;;;;;27.60;36.34;98472.66;5076413;28;20127;-71
2023/07/10 00:17:01;;;;;;;5.05;3.20;;;;;;;27.67;36.33;98469.56;5059255;28;20159;-71
2023/07/10 00:19:27;;;;;;;5.57;3.15;;;;;;;27.59;36.26;98470.22;5025993;28;20068;-70
2023/07/10 00:21:53;;;;;;;4.65;3.13;;;;;;;27.55;36.31;98474.66;5042123;28;20098;-71
2023/07/10 00:24:19;;;;;;;5.28;3.42;;;;;;;27.51;36.39;98470.88;5025321;28;20059;-70
2023/07/10 00:26:46;;;;;;;10.98;3.35;;;;;;;27.44;36.54;98468.56;5025557;28;20510;-70
2023/07/10 00:29:15;;;;;;;5.18;3.20;;;;;;;27.72;36.55;98470.28;5041586;28;20032;-70
2023/07/10 00:31:41;;;;;;;7.35;3.60;;;;;;;27.38;36.48;98456.09;5058571;28;20487;-70
2023/07/10 00:34:19;;;;;;;8.48;3.30;;;;;;;27.65;36.63;98458.94;5041663;28;20328;-70
2023/07/10 00:36:50;;;;;;;4.25;3.00;;;;;;;27.60;37.06;98463.69;5026826;28;20085;-70
2023/07/10 00:39:28;;;;;;;9.10;3.10;;;;;;;27.64;36.90;98467.44;5042104;28;20032;-71
2023/07/10 00:42:10;;;;;;;5.80;3.30;;;;;;;27.70;36.80;98471.69;5042067;28;20052;-70
2023/07/10 00:44:41;;;;;;;9.32;3.08;;;;;;;27.48;37.17;98461.38;5042601;28;20055;-70
2023/07/10 00:47:13;;;;;;;4.55;2.88;;;;;;;27.67;36.95;98475.84;5042810;28;20032;-71
2023/07/10 00:49:55;;;;;;;6.43;3.40;;;;;;;27.58;37.04;98457.72;5058993;28;20055;-71
2023/07/10 00:52:46;;;;;;;6.93;3.47;;;;;;;27.69;36.83;98464.63;5075612;28;20065;-70
2023/07/10 00:55:17;;;;;;;3.47;2.90;;;;;;;27.64;36.91;98464.69;5072835;28;20498;-70
2023/07/10 00:57:47;;;;;;;5.32;2.92;;;;;;;27.60;37.28;98458.22;5058300;28;20472;-70
2023/07/10 01:00:23;;;;;;;4.50;2.67;;;;;;;27.56;37.02;98470.81;5025105;28;20132;-71
2023/07/10 01:02:50;;;;;;;6.30;2.78;;;;;;;27.21;37.43;98471.31;5058022;28;20127;-70
2023/07/10 01:05:18;;;;;;;5.38;3.15;;;;;;;27.41;37.51;98468.31;5037573;28;20090;-71
2023/07/10 01:07:56;;;;;;;6.35;3.13;;;;;;;27.50;37.38;98474.72;5021880;28;20047;-71
2023/07/10 01:10:22;;;;;;;2.95;2.60;;;;;;;27.26;37.80;98468.53;5021415;28;20037;-71
2023/07/10 01:12:49;;;;;;;4.88;2.78;;;;;;;27.18;37.72;98469.16;5037782;28;20178;-71
2023/07/10 01:15:16;;;;;;;3.92;2.70;;;;;;;27.23;37.65;98466.38;5017601;28;20084;-71
2023/07/10 01:17:43;;;;;;;6.78;2.97;;;;;;;27.11;38.32;98479.63;5019019;28;20101;-71
2023/07/10 01:20:32;;;;;;;;;;;;;;;27.46;37.43;98477.22;4941127;28;20500;-71
2023/07/10 01:23:01;;;;;;;6.97;2.65;;;;;;;27.10;37.94;98476.09;5034920;28;20007;-70
2023/07/10 01:25:29;;;;;;;9.30;3.20;;;;;;;27.22;38.12;98470.19;5018356;28;20037;-72
2023/07/10 01:27:55;;;;;;;5.63;2.75;;;;;;;27.01;38.13;98460.66;5052953;28;20063;-71
2023/07/10 01:30:27;;;;;;;4.82;2.40;;;;;;;27.21;38.20;98465.84;5019790;28;20044;-72
2023/07/10 01:32:55;;;;;;;4.60;2.70;;;;;;;27.09;38.26;98471.75;5003812;28;20369;-72
2023/07/10 01:35:24;;;;;;;3.47;2.70;;;;;;;27.11;38.07;98471.44;5035465;28;20056;-72
2023/07/10 01:37:50;;;;;;;3.05;2.47;;;;;;;26.95;38.11;98478.19;4985572;28;20488;-70
2023/07/10 01:40:21;;;;;;;3.90;2.22;;;;;;;27.11;38.13;98483.16;4984941;28;20037;-71
2023/07/10 01:42:48;;;;;;;4.88;2.42;;;;;;;27.03;38.31;98483.00;5001070;28;20048;-71
2023/07/10 01:45:14;;;;;;;3.70;2.80;;;;;;;26.94;37.94;98488.25;4998046;28;20164;-71
2023/07/10 01:47:41;;;;;;;4.30;2.38;;;;;;;27.03;38.19;98489.25;4997940;28;20537;-72
2023/07/10 01:50:09;;;;;;;3.00;2.70;;;;;;;26.91;38.12;98488.84;4975417;28;20132;-71
2023/07/10 01:52:38;;;;;;;4.20;2.20;;;;;;;26.87;38.10;98489.72;4981422;28;20052;-71
2023/07/10 01:55:05;;;;;;;9.32;2.55;;;;;;;26.91;38.42;98488.84;5036575;28;20048;-71
2023/07/10 01:57:33;;;;;;;4.38;2.40;;;;;;;27.14;37.99;98493.47;5020109;28;20059;-70
2023/07/10 02:00:00;;;;;;;5.03;2.00;;;;;;;26.88;38.01;98480.47;5034572;28;20037;-71
2023/07/10 02:02:26;;;;;;;2.22;2.03;;;;;;;26.96;37.86;98491.53;5017539;28;20629;-71
2023/07/10 02:04:53;;;;;;;6.57;2.20;;;;;;;26.91;37.96;98501.69;5017108;28;20041;-71
2023/07/10 02:07:22;;;;;;;4.05;2.15;;;;;;;26.88;38.32;98494.88;5033561;28;20060;-71
2023/07/10 02:09:48;;;;;;;2.90;2.38;;;;;;;26.90;38.00;98497.31;5033286;28;20083;-71
2023/07/10 02:12:19;;;;;;;4.88;2.28;;;;;;;27.12;38.07;98483.97;5017616;28;20033;-71
2023/07/10 02:14:47;;;;;;;2.55;1.80;;;;;;;26.93;38.11;98503.00;5017048;28;20045;-71
2023/07/10 02:17:14;;;;;;;2.25;1.90;;;;;;;27.12;37.94;98495.69;5002082;28;20060;-71
2023/07/10 02:19:42;;;;;;;3.60;2.10;;;;;;;27.03;38.09;98500.13;5019849;28;20025;-71
2023/07/10 02:22:08;;;;;;;4.68;2.28;;;;;;;27.12;37.52;98494.88;5008523;28;20131;-71
2023/07/10 02:24:34;;;;;;;2.35;1.80;;;;;;;27.02;37.89;98503.16;5021166;28;20072;-70
2023/07/10 02:27:00;;;;;;;3.20;1.80;;;;;;;27.03;37.77;98493.91;5043224;28;20380;-71
2023/07/10 02:29:33;;;;;;;3.25;1.98;;;;;;;27.27;37.64;98502.88;5059274;28;20046;-71
2023/07/10 02:32:01;;;;;;;2.83;1.88;;;;;;;27.19;37.72;98490.69;5074571;28;20036;-70
2023/07/10 02:34:33;;;;;;;5.27;2.00;;;;;;;27.17;37.58;98503.78;5058272;28;20043;-70
2023/07/10 02:37:01;;;;;;;4.57;2.00;;;;;;;26.94;37.68;98490.19;5074353;28;20059;-71
2023/07/10 02:39:29;;;;;;;5.28;1.92;;;;;;;27.10;37.34;98497.06;5056854;28;20474;-71
2023/07/10 02:41:56;;;;;;;5.45;1.83;;;;;;;27.06;37.55;98501.50;5033632;28;20080;-73
2023/07/10 02:44:23;;;;;;;3.75;1.85;;;;;;;27.15;37.13;98497.00;5016460;28;20084;-71
2023/07/10 02:46:51;;;;;;;2.13;1.70;;;;;;;27.28;37.22;98499.03;5009977;28;20462;-71
2023/07/10 02:49:19;;;;;;;1.70;1.60;;;;;;;27.27;37.06;98508.31;4977494;28;20041;-71
2023/07/10 02:51:46;;;;;;;2.25;1.50;;;;;;;27.30;37.28;98486.75;4977368;28;20069;-71
2023/07/10 02:54:13;;;;;;;2.83;1.60;;;;;;;27.33;37.12;98488.06;4980970;28;20061;-71
2023/07/10 02:56:40;;;;;;;5.03;1.63;;;;;;;27.32;37.07;98498.19;4997535;28;20107;-73
2023/07/10 02:59:06;;;;;;;5.32;1.83;;;;;;;27.16;37.30;98490.44;4981824;28;20053;-71
2023/07/10 03:01:33;;;;;;;4.70;1.67;;;;;;;27.19;36.97;98501.59;4981055;28;20085;-71
2023/07/10 03:03:59;;;;;;;9.48;1.77;;;;;;;27.17;37.29;98503.00;4997324;28;20050;-71
2023/07/10 03:06:27;;;;;;;4.55;1.70;;;;;;;27.33;36.89;98498.97;4980706;28;20056;-71
2023/07/10 03:08:53;;;;;;;2.20;1.27;;;;;;;27.16;37.11;98501.34;4980975;28;20277;-71
2023/07/10 03:11:21;;;;;;;4.05;1.55;;;;;;;27.39;36.85;98492.34;4984643;28;20174;-71
2023/07/10 03:13:47;;;;;;;4.35;1.42;;;;;;;27.16;36.88;98501.34;5000944;28;20037;-70
2023/07/10 03:16:14;;;;;;;3.05;1.52;;;;;;;27.41;36.76;98498.31;5000683;28;20257;-72
2023/07/10 03:18:46;;;;;;;1.60;1.50;;;;;;;27.26;36.50;98498.53;5054964;28;20037;-72
2023/07/10 03:21:14;;;;;;;3.25;1.30;;;;;;;27.33;36.89;98498.97;5056630;28;20036;-71
2023/07/10 03:23:42;;;;;;;4.22;1.45;;;;;;;27.27;36.71;98495.53;5033016;28;20092;-71
2023/07/10 03:26:08;;;;;;;6.25;1.23;;;;;;;27.31;36.29;98498.44;5012892;28;20041;-71
2023/07/10 03:28:37;;;;;;;6.03;1.17;;;;;;;27.57;36.29;98489.63;5020036;28;20043;-71
2023/07/10 03:31:05;;;;;;;2.97;1.38;;;;;;;27.54;36.02;98500.31;4966185;28;20069;-71
2023/07/10 03:33:32;;;;;;;2.05;1.27;;;;;;;27.55;36.27;98494.56;5000792;28;20057;-71
2023/07/10 03:36:00;;;;;;;4.30;1.30;;;;;;;27.59;35.78;98489.31;4982329;28;20041;-71
2023/07/10 03:38:26;;;;;;;3.67;1.20;;;;;;;27.38;36.06;98491.56;4997409;28;20029;-71
2023/07/10 03:40:56;;;;;;;2.45;1.02;;;;;;;27.75;35.81;98493.44;4964673;28;20048;-71
2023/07/10 03:43:23;;;;;;;5.10;1.30;;;;;;;27.59;35.81;98481.13;4996808;28;20038;-71
2023/07/10 03:45:51;;;;;;;4.13;1.10;;;;;;;27.70;35.80;98493.53;4980443;28;20052;-71
2023/07/10 03:48:19;;;;;;;2.63;1.30;;;;;;;27.63;35.80;98498.56;4996334;28;20081;-71
2023/07/10 03:50:45;;;;;;;10.07;1.30;;;;;;;27.55;35.68;98499.22;4996295;28;20144;-71
2023/07/10 03:53:15;;;;;;;1.25;1.10;;;;;;;27.62;35.71;98503.19;4957812;28;20062;-71
2023/07/10 03:55:55;;;;;;;2.33;1.10;;;;;;;28.01;34.89;98505.63;4941605;28;20052;-71
2023/07/10 03:58:24;;;;;;;3.55;1.10;;;;;;;27.85;35.33;98498.75;4941982;28;20130;-71
2023/07/10 04:00:50;;;;;;;2.63;1.40;;;;;;;27.82;35.22;98515.72;4942084;28;20465;-71
2023/07/10 04:03:20;;;;;;;1.42;1.15;;;;;;;27.93;34.99;98511.75;4963651;28;20045;-71
2023/07/10 04:05:52;;;;;;;2.33;1.50;;;;;;;27.93;34.80;98507.13;4947280;28;20061;-71
2023/07/10 04:08:22;;;;;;;4.70;1.13;;;;;;;27.98;34.76;98493.34;4980963;28;20099;-71
2023/07/10 04:10:54;;;;;;;1.63;1.13;;;;;;;28.14;34.73;98512.25;4996331;28;20470;-70
2023/07/10 04:13:22;;;;;;;3.92;1.20;;;;;;;27.96;34.85;98517.44;4975191;28;20044;-71
2023/07/10 04:16:18;;;;;;;2.58;1.08;;;;;;;28.36;34.57;98501.47;5036551;28;20053;-71
2023/07/10 04:18:46;;;;;;;2.05;1.10;;;;;;;28.33;34.63;98513.81;5019195;28;20460;-72
2023/07/10 04:21:25;;;;;;;1.10;1.00;;;;;;;28.46;34.54;98518.47;5035484;28;20493;-71
2023/07/10 04:23:53;;;;;;;2.20;1.30;;;;;;;28.35;34.57;98511.59;5038243;28;20222;-71
2023/07/10 04:26:22;;;;;;;7.47;1.35;;;;;;;28.39;34.33;98519.97;5059439;28;20036;-71
2023/07/10 04:28:52;;;;;;;9.85;1.50;;;;;;;28.57;34.29;98521.88;5059392;28;20040;-70
2023/07/10 04:31:19;;;;;;;1.77;1.45;;;;;;;28.49;33.95;98526.13;5042747;28;20519;-71
2023/07/10 04:33:47;;;;;;;2.97;1.40;;;;;;;28.47;34.23;98519.31;5076105;28;20304;-71
2023/07/10 04:36:14;;;;;;;6.30;1.45;;;;;;;28.45;33.89;98519.59;5043212;28;20036;-70
2023/07/10 04:38:40;;;;;;;8.07;2.00;;;;;;;28.44;33.81;98523.44;5092095;28;20040;-70
2023/07/10 04:41:10;;;;;;;6.95;1.60;;;;;;;28.62;33.60;98513.56;5041789;28;20062;-71
2023/07/10 04:43:36;;;;;;;1.80;1.40;;;;;;;28.58;33.48;98523.50;5024898;28;20480;-70
2023/07/10 04:46:05;;;;;;;6.78;1.42;;;;;;;28.82;33.72;98535.06;5014859;28;20115;-70
2023/07/10 04:48:32;;;;;;;5.93;1.50;;;;;;;28.78;33.42;98539.53;4966332;28;20377;-71
2023/07/10 04:51:04;;;;;;;4.15;1.40;;;;;;;28.72;33.00;98525.16;5014515;28;20571;-71
2023/07/10 04:53:33;;;;;;;7.88;1.70;;;;;;;28.94;32.91;98532.63;4966538;28;20080;-71
2023/07/10 04:56:01;;;;;;;3.70;1.20;;;;;;;28.94;32.85;98541.66;4998134;28;20132;-71
2023/07/10 04:58:31;;;;;;;3.85;1.30;;;;;;;28.97;32.42;98540.25;4982582;28;20088;-70
2023/07/10 05:00:58;;;;;;;5.13;1.40;;;;;;;28.97;32.29;98537.53;5015361;28;20063;-71
2023/07/10 05:03:25;;;;;;;3.08;1.40;;;;;;;28.93;32.54;98548.25;5014904;28;20449;-70
2023/07/10 05:05:56;;;;;;;5.68;1.50;;;;;;;29.21;32.03;98543.59;4981922;28;20115;-71
2023/07/10 05:08:24;;;;;;;4.43;1.20;;;;;;;29.21;31.99;98543.59;4998203;28;20119;-71
2023/07/10 05:10:50;;;;;;;3.10;1.20;;;;;;;29.27;31.47;98543.22;5014403;28;20136;-73
2023/07/10 05:13:20;;;;;;;8.25;1.15;;;;;;;29.49;31.12;98551.47;4982296;28;20476;-71
2023/07/10 05:15:48;;;;;;;5.27;1.50;;;;;;;29.46;30.67;98546.59;4989564;28;20091;-70
2023/07/10 05:18:14;;;;;;;5.20;1.20;;;;;;;29.44;30.45;98548.88;4985868;28;20040;-71
2023/07/10 05:20:43;;;;;;;4.95;1.58;;;;;;;29.64;30.25;98555.03;4985245;28;20059;-71
2023/07/10 05:23:11;;;;;;;14.73;2.15;;;;;;;29.39;29.91;98550.88;5016796;28;20036;-71
2023/07/10 05:25:37;;;;;;;6.97;1.55;;;;;;;29.66;29.39;98561.81;5058141;28;20039;-71
2023/07/10 05:28:03;;;;;;;4.63;1.95;;;;;;;29.57;29.21;98553.47;5041547;28;20105;-71
2023/07/10 05:30:29;;;;;;;7.25;2.20;;;;;;;29.59;29.24;98559.47;5041803;28;20127;-71
2023/07/10 05:32:55;;;;;;;4.18;2.00;;;;;;;29.54;29.20;98554.09;5025401;28;20135;-71
2023/07/10 05:35:22;;;;;;;8.73;2.10;;;;;;;29.59;29.02;98562.22;5058729;28;20082;-71
2023/07/10 05:37:48;;;;;;;4.75;1.90;;;;;;;29.66;29.00;98563.75;5042686;28;20043;-71
2023/07/10 05:40:14;;;;;;;14.25;2.20;;;;;;;29.69;28.72;98561.22;5042245;28;20127;-71
2023/07/10 05:42:40;;;;;;;9.32;2.10;;;;;;;29.69;28.51;98554.91;5042051;28;20032;-70
2023/07/10 05:45:06;;;;;;;8.45;1.98;;;;;;;29.87;28.43;98562.16;5042486;28;20359;-71
2023/07/10 05:47:34;;;;;;;4.28;1.80;;;;;;;29.94;28.48;98579.78;5070366;28;20472;-71
2023/07/10 05:50:00;;;;;;;6.90;2.40;;;;;;;29.99;28.31;98576.94;5004061;28;20048;-70
2023/07/10 05:52:29;;;;;;;10.48;2.08;;;;;;;30.28;28.14;98582.81;5004871;28;20040;-71
2023/07/10 05:54:55;;;;;;;6.95;2.20;;;;;;;30.25;27.92;98575.22;5036924;28;20049;-70
2023/07/10 05:57:21;;;;;;;5.78;2.17;;;;;;;30.33;27.72;98582.72;5020603;28;20047;-70
2023/07/10 05:59:50;;;;;;;6.15;2.20;;;;;;;30.50;27.32;98579.28;5004362;28;20079;-70
2023/07/10 06:02:15;;;;;;;6.90;2.40;;;;;;;30.41;27.27;98581.97;5004759;28;20044;-71
2023/07/10 06:04:43;;;;;;;6.32;1.90;;;;;;;30.40;27.10;98582.28;5020273;28;20036;-70
2023/07/10 06:07:08;;;;;;;7.68;2.10;;;;;;;30.60;26.63;98584.50;5003963;28;20041;-71
2023/07/10 06:09:34;;;;;;;7.43;1.90;;;;;;;30.55;26.48;98587.38;5020295;28;20036;-71
2023/07/10 06:12:00;;;;;;;6.50;2.00;;;;;;;30.79;26.14;98593.34;5003891;28;20127;-71
2023/07/10 06:14:27;;;;;;;7.40;1.80;;;;;;;30.68;25.99;98587.28;5033015;28;20045;-71
2023/07/10 06:16:55;;;;;;;3.30;2.00;;;;;;;30.84;26.06;98587.72;5017097;28;20056;-71
2023/07/10 06:19:25;;;;;;;3.13;1.52;;;;;;;30.87;25.41;98584.34;5085674;28;20051;-71
2023/07/10 06:22:04;;;;;;;7.30;2.08;;;;;;;31.32;24.69;98594.13;5056578;28;20414;-72
2023/07/10 06:24:32;;;;;;;6.75;1.60;;;;;;;31.07;25.36;98592.03;5071147;28;20075;-71
2023/07/10 06:27:00;;;;;;;5.38;1.67;;;;;;;31.13;25.02;98590.78;5024004;28;20148;-71
2023/07/10 06:29:25;;;;;;;12.75;1.70;;;;;;;31.25;24.51;98590.16;5027773;28;20414;-70
2023/07/10 06:31:51;;;;;;;4.45;1.73;;;;;;;31.29;24.55;98588.41;5043625;28;20479;-71
2023/07/10 06:34:17;;;;;;;6.90;1.98;;;;;;;31.30;24.06;98587.31;5027770;28;20046;-71
2023/07/10 06:36:44;;;;;;;4.53;1.67;;;;;;;31.40;24.06;98584.28;5044331;28;20075;-71
2023/07/10 06:39:11;;;;;;;6.80;1.80;;;;;;;31.53;23.85;98589.66;5044628;28;20578;-70
2023/07/10 06:41:37;;;;;;;2.63;1.65;;;;;;;31.54;23.94;98594.00;5004543;28;20144;-72
2023/07/10 06:44:05;;;;;;;2.10;1.50;;;;;;;31.59;23.76;98582.88;4988673;28;20099;-71
2023/07/10 06:46:32;;;;;;;2.65;1.60;;;;;;;31.90;24.00;98586.34;5006834;28;20102;-71
2023/07/10 06:48:58;;;;;;;7.82;1.75;;;;;;;32.03;23.88;98595.56;5008037;28;20062;-71
2023/07/10 06:51:24;;;;;;;9.43;1.83;;;;;;;32.09;23.79;98589.56;5008890;28;20032;-71
2023/07/10 06:53:51;;;;;;;4.55;1.90;;;;;;;32.30;23.64;98596.06;5008311;28;20072;-71
2023/07/10 06:56:20;;;;;;;3.95;1.60;;;;;;;32.40;23.17;98593.00;5008843;28;20119;-74
2023/07/10 06:58:46;;;;;;;6.63;1.95;;;;;;;32.48;23.00;98603.16;5023960;28;20478;-71
2023/07/10 07:01:12;;;;;;;9.20;2.05;;;;;;;32.65;22.69;98592.16;5007376;28;20045;-71
2023/07/10 07:03:40;;;;;;;5.70;1.98;;;;;;;32.61;22.38;98587.63;5007363;28;20051;-71
2023/07/10 07:06:07;;;;;;;10.32;2.03;;;;;;;32.87;22.17;98584.81;5007881;28;20044;-71
2023/07/10 07:08:34;;;;;;;8.05;1.90;;;;;;;32.95;22.02;98575.75;5025369;28;20040;-71
2023/07/10 07:11:00;;;;;;;5.85;1.48;;;;;;;33.14;21.92;98581.66;5008524;28;20139;-71
2023/07/10 07:13:26;;;;;;;6.13;2.15;;;;;;;33.25;21.47;98589.22;5007528;28;20135;-71
2023/07/10 07:15:54;;;;;;;8.40;1.80;;;;;;;33.69;21.39;98596.16;5023833;28;20036;-70
2023/07/10 07:18:24;;;;;;;7.03;2.05;;;;;;;33.83;20.81;98593.91;4997195;28;20040;-71
2023/07/10 07:20:50;;;;;;;4.43;1.60;;;;;;;33.92;20.68;98594.72;5060037;28;20132;-70
2023/07/10 07:23:19;;;;;;;44.30;3.28;;;;;;;34.41;20.91;98604.06;5043088;28;20075;-70
2023/07/10 07:25:46;;;;;;;5.82;1.80;;;;;;;34.79;20.37;98608.22;5043269;28;20455;-71
2023/07/10 07:28:14;;;;;;;6.85;2.15;;;;;;;35.13;20.24;98602.34;5026631;28;20039;-70
2023/07/10 07:30:47;;;;;;;10.88;1.98;;;;;;;35.68;19.81;98607.31;5042920;28;20046;-71
2023/07/10 07:33:18;;;;;;;4.65;1.80;;;;;;;36.50;18.87;98611.44;5027621;28;20444;-71
2023/07/10 07:35:45;;;;;;;7.38;2.10;;;;;;;37.38;17.83;98603.59;5056958;28;20079;-71
2023/07/10 07:38:13;;;;;;;4.35;1.55;;;;;;;38.23;17.20;98600.81;5042379;28;20491;-71
2023/07/10 07:40:40;;;;;;;6.65;1.90;;;;;;;39.37;15.81;98602.63;5026667;28;20036;-71
2023/07/10 07:43:06;;;;;;;3.17;1.83;;;;;;;40.47;14.63;98590.00;5042629;28;20032;-71
2023/07/10 07:45:33;;;;;;;6.88;2.03;;;;;;;42.04;13.62;98598.25;5019386;28;20056;-71
2023/07/10 07:48:00;;;;;;;7.13;1.90;;;;;;;43.68;12.24;98596.28;5019854;28;20076;-71
2023/07/10 07:50:26;;;;;;;8.73;1.80;;;;;;;45.58;11.22;98604.63;5019718;28;20076;-71
2023/07/10 07:52:53;;;;;;;9.30;2.45;;;;;;;47.47;9.48;98607.84;5036726;28;20136;-72
2023/07/10 07:55:22;;;;;;;8.88;1.70;;;;;;;49.38;8.54;98616.03;5035918;28;20068;-71
2023/07/10 07:57:49;;;;;;;8.55;1.50;;;;;;;50.52;7.66;98600.00;5002875;28;20091;-72
2023/07/10 08:00:15;;;;;;;7.35;1.40;;;;;;;51.58;6.95;98608.75;5035987;28;20080;-72
2023/07/10 08:02:45;;;;;;;5.57;1.58;;;;;;;52.74;6.18;98607.38;5003069;28;20475;-72
2023/07/10 08:05:12;;;;;;;4.40;1.70;;;;;;;53.49;5.46;98602.34;5019084;28;20365;-72
2023/07/10 08:07:39;;;;;;;4.82;1.55;;;;;;;54.07;5.46;98603.81;4986894;28;20035;-72
2023/07/10 08:10:07;;;;;;;12.52;2.92;;;;;;;54.72;5.47;98609.75;5018981;28;20081;-72
2023/07/10 08:12:32;;;;;;;8.10;1.60;;;;;;;54.64;5.21;98610.59;5003110;28;20053;-72
2023/07/10 08:14:58;;;;;;;7.03;1.55;;;;;;;54.18;5.29;98601.28;5002818;28;20424;-72
2023/07/10 08:17:24;;;;;;;4.65;1.75;;;;;;;53.10;5.91;98604.72;5036149;28;20139;-71
2023/07/10 08:19:50;;;;;;;9.15;1.70;;;;;;;53.28;5.93;98609.69;5076404;28;20169;-72
2023/07/10 08:22:16;;;;;;;7.57;2.00;;;;;;;53.26;5.92;98612.19;5044058;28;20079;-71
2023/07/10 08:24:44;;;;;;;4.72;1.70;;;;;;;54.15;5.25;98613.63;5060702;28;20397;-72
2023/07/10 08:27:10;;;;;;;1.63;1.42;;;;;;;54.83;4.94;98609.28;5060971;28;20047;-71
2023/07/10 08:29:36;;;;;;;3.47;1.80;;;;;;;54.72;4.80;98609.75;5059642;28;20139;-71
2023/07/10 08:32:03;;;;;;;5.95;1.85;;;;;;;54.51;5.12;98607.94;5059494;28;20533;-71
2023/07/10 08:34:30;;;;;;;9.00;1.70;;;;;;;54.63;5.18;98604.09;5021878;28;20125;-72
2023/07/10 08:36:58;;;;;;;6.38;1.70;;;;;;;55.31;4.74;98610.19;5022336;28;20145;-71
2023/07/10 08:39:26;;;;;;;7.30;1.60;;;;;;;55.99;4.46;98609.88;5022289;28;20139;-72
2023/07/10 08:42:01;;;;;;;7.82;1.75;;;;;;;54.91;5.04;98604.81;5038519;28;20045;-74
2023/07/10 08:44:32;;;;;;;3.85;1.55;;;;;;;52.50;6.05;98602.66;5022401;28;20073;-72
2023/07/10 08:47:01;;;;;;;5.65;1.42;;;;;;;50.97;6.81;98599.84;5005819;28;20041;-72
2023/07/10 08:49:37;;;;;;;8.60;1.70;;;;;;;49.16;7.62;98600.84;5018728;28;20061;-71
2023/07/10 08:52:13;;;;;;;8.23;1.83;;;;;;;49.04;7.73;98602.34;5034618;28;20146;-71
2023/07/10 08:54:39;;;;;;;6.55;1.75;;;;;;;50.44;7.17;98603.50;5001732;28;20064;-71
2023/07/10 08:57:32;;;;;;;8.70;2.05;;;;;;;52.39;6.19;98605.91;5018392;28;20057;-71
2023/07/10 09:00:06;;;;;;;5.38;1.55;;;;;;;54.02;5.57;98600.84;4978923;28;20050;-71
2023/07/10 09:02:59;;;;;;;10.95;1.65;;;;;;;55.05;5.01;98606.19;4996131;28;20049;-71
2023/07/10 09:05:28;;;;;;;10.13;2.35;;;;;;;53.11;5.87;98606.31;4962372;28;20038;-71
2023/07/10 09:07:59;;;;;;;;;;;;;;;52.80;5.90;98619.72;4963309;28;20053;-71
2023/07/10 09:10:48;;;;;;;8.10;2.20;;;;;;;53.99;5.29;98613.97;4979015;28;20385;-71
2023/07/10 09:13:23;;;;;;;8.57;2.05;;;;;;;55.19;4.80;98605.50;5017774;28;20144;-72
2023/07/10 09:15:55;;;;;;;9.00;1.70;;;;;;;56.13;4.29;98622.63;4985098;28;20087;-72
2023/07/10 09:18:28;;;;;;;14.43;2.28;;;;;;;57.03;3.82;98623.75;5017863;28;20096;-72
2023/07/10 09:20:57;;;;;;;11.93;1.73;;;;;;;58.05;3.35;98614.84;4985020;28;20033;-72
2023/07/10 09:23:29;;;;;;;3.28;1.70;;;;;;;58.53;3.09;98608.09;5013466;28;20153;-71
2023/07/10 09:25:58;;;;;;;3.90;1.48;;;;;;;58.72;3.01;98603.59;5030211;28;20068;-72
2023/07/10 09:28:25;;;;;;;7.00;1.95;;;;;;;59.08;2.59;98600.00;5013854;28;20563;-73
2023/07/10 09:31:47;;;;;;;5.68;1.77;;;;;;;56.98;3.63;98598.78;5052371;28;20056;-72
2023/07/10 09:34:23;;;;;;;8.68;1.80;;;;;;;55.30;4.43;98597.22;4978197;28;20517;-71
2023/07/10 09:36:51;;;;;;;7.88;2.20;;;;;;;55.17;4.60;98585.25;4978265;28;20060;-73
2023/07/10 09:39:19;;;;;;;8.52;1.70;;;;;;;53.65;5.44;98590.69;5016225;28;20147;-72
2023/07/10 09:41:46;;;;;;;11.65;2.05;;;;;;;51.50;6.41;98572.66;5040320;28;20048;-75
2023/07/10 09:44:18;;;;;;;6.72;2.05;;;;;;;49.79;7.38;98560.53;5040228;28;20043;-72
2023/07/10 09:46:46;;;;;;;8.70;2.05;;;;;;;48.39;7.92;98567.53;5033673;28;20385;-73
2023/07/10 09:49:18;;;;;;;8.30;2.20;;;;;;;47.24;8.72;98568.44;5016946;28;20129;-71
2023/07/10 09:51:59;;;;;;;6.47;2.17;;;;;;;45.80;9.52;98561.09;5000731;28;20191;-74
2023/07/10 09:54:38;;;;;;;5.88;2.10;;;;;;;47.57;8.48;98580.75;5000624;28;20044;-74
2023/07/10 09:57:11;;;;;;;8.05;2.28;;;;;;;49.53;7.48;98577.75;5001209;28;20056;-70
2023/07/10 09:59:38;;;;;;;7.05;1.80;;;;;;;48.93;7.60;98590.47;4984800;28;20053;-71
2023/07/10 10:02:39;;;;;;;5.47;2.50;;;;;;;48.28;7.88;98583.84;5003719;28;20395;-72
2023/07/10 10:05:10;;;;;;;4.95;2.13;;;;;;;48.52;8.36;98593.78;5021098;28;20452;-70
2023/07/10 10:07:42;;;;;;;9.63;2.30;;;;;;;47.67;8.75;98591.03;5037082;28;20545;-71
2023/07/10 10:10:18;;;;;;;13.98;2.22;;;;;;;46.60;9.42;98597.88;4998196;28;20479;-70
2023/07/10 10:12:52;;;;;;;10.48;2.47;;;;;;;45.35;10.18;98585.53;5030046;28;20049;-70
2023/07/10 10:15:43;;;;;;;7.57;2.13;;;;;;;44.51;10.56;98602.88;4981926;28;20388;-71
2023/07/10 10:18:41;;;;;;;4.03;2.28;;;;;;;45.18;10.02;98610.94;5050945;28;20484;-71
2023/07/10 10:21:11;;;;;;;4.70;2.03;;;;;;;46.72;9.52;98609.34;5012607;28;20048;-70
2023/07/10 10:23:39;;;;;;;4.00;2.03;;;;;;;47.81;8.32;98615.31;5053195;28;20110;-71
2023/07/10 10:26:23;;;;;;;6.20;2.10;;;;;;;47.02;8.74;98617.00;5068860;28;20058;-71
2023/07/10 10:29:10;;;;;;;4.25;2.00;;;;;;;46.87;9.19;98616.41;5069854;28;20083;-70
2023/07/10 10:31:40;;;;;;;5.10;2.25;;;;;;;48.44;8.43;98617.72;5070041;28;20041;-69
2023/07/10 10:34:31;;;;;;;4.95;2.70;;;;;;;50.51;6.91;98618.22;5053493;28;20080;-69
2023/07/10 10:37:00;;;;;;;10.93;2.58;;;;;;;50.21;6.98;98626.38;5036422;28;20052;-70
2023/07/10 10:39:37;;;;;;;4.77;1.90;;;;;;;48.76;7.92;98636.81;5070187;28;20063;-70
2023/07/10 10:42:28;;;;;;;11.70;2.13;;;;;;;46.86;8.90;98619.63;5037244;28;20044;-73
2023/07/10 10:45:13;;;;;;;;;;;;;;;45.29;9.97;98612.44;5036767;28;20044;-71
2023/07/10 10:47:48;;;;;;;3.95;2.05;;;;;;;44.27;10.71;98607.38;5035869;28;19920;-71
2023/07/10 10:50:17;;;;;;;6.30;1.90;;;;;;;44.17;10.80;98618.56;5003116;28;20539;-70
2023/07/10 10:52:43;;;;;;;4.97;2.20;;;;;;;43.46;11.49;98617.06;5035838;28;20127;-70
2023/07/10 10:55:19;;;;;;;7.90;2.65;;;;;;;43.02;11.53;98622.97;5052062;28;20079;-70
2023/07/10 10:58:20;;;;;;;6.75;2.55;;;;;;;42.26;12.03;98622.28;5004068;28;20048;-70
2023/07/10 11:01:04;;;;;;;6.43;2.30;;;;;;;41.86;12.90;98613.25;5009301;28;20045;-70
2023/07/10 11:03:38;;;;;;;6.93;2.13;;;;;;;41.55;13.22;98626.56;5071051;28;20044;-70
2023/07/10 11:06:31;;;;;;;4.43;2.35;;;;;;;41.17;13.21;98615.88;5040841;28;20108;-70
2023/07/10 11:08:59;;;;;;;4.90;2.67;;;;;;;40.76;13.89;98633.72;5052376;28;20547;-70
2023/07/10 11:11:32;;;;;;;4.07;2.33;;;;;;;40.82;13.69;98626.63;5041067;28;20583;-70
2023/07/10 11:14:02;;;;;;;3.72;2.70;;;;;;;40.44;14.11;98635.31;5050915;28;20198;-70
2023/07/10 11:16:32;;;;;;;7.68;2.72;;;;;;;40.05;14.38;98645.06;5020044;28;20056;-70
2023/07/10 11:19:02;;;;;;;8.50;2.63;;;;;;;39.42;14.88;98641.28;5020055;28;20064;-70
2023/07/10 11:21:32;;;;;;;8.05;2.65;;;;;;;38.93;15.21;98632.00;5003916;28;20190;-69
2023/07/10 11:24:14;;;;;;;6.47;2.67;;;;;;;38.61;15.73;98634.16;5036923;28;20143;-69
2023/07/10 11:26:42;;;;;;;3.47;2.65;;;;;;;37.85;16.25;98647.88;5021481;28;20044;-70
2023/07/10 11:29:32;;;;;;;3.55;2.53;;;;;;;37.65;16.66;98640.63;4988457;28;20217;-72
2023/07/10 11:32:00;;;;;;;5.97;2.60;;;;;;;37.10;16.95;98633.28;4987527;28;20368;-70
2023/07/10 11:34:28;;;;;;;6.28;2.55;;;;;;;36.72;17.13;98633.81;5019915;28;20056;-69
2023/07/10 11:36:58;;;;;;;3.95;2.22;;;;;;;36.92;17.01;98640.34;5036186;28;20435;-70
2023/07/10 11:39:36;;;;;;;6.72;2.60;;;;;;;37.06;17.16;98644.28;5003391;28;20087;-70
2023/07/10 11:42:14;;;;;;;4.60;2.30;;;;;;;37.24;17.27;98633.69;5019626;28;20049;-70
2023/07/10 11:44:41;;;;;;;3.55;2.55;;;;;;;36.93;17.14;98636.41;5023391;28;20048;-70
2023/07/10 11:47:28;;;;;;;6.28;2.55;;;;;;;37.30;17.04;98639.75;5044114;28;20107;-69
2023/07/10 11:49:54;;;;;;;6.47;2.78;;;;;;;37.11;17.70;98638.47;5060161;28;20056;-69
2023/07/10 11:52:20;;;;;;;9.30;3.35;;;;;;;37.30;17.17;98654.41;5059835;28;20523;-69